sensor_id;sensor_type;location;lat;lon;timestamp;pressure;altitude;pressure_sealevel;temperature;humidity
33949;BME280;20229;49.856;19.030;2023-04-03T00:00:49;101988.93;;;3.43;95.80
33949;BME280;20229;49.856;19.030;2023-04-03T00:06:04;101994.33;;;3.43;95.94
33949;BME280;20229;49.856;19.030;2023-04-03T00:11:22;101993.45;;;3.41;95.42
33949;BME280;20229;49.856;19.030;2023-04-03T00:16:36;101995.30;;;3.34;95.42
33949;BME280;20229;49.856;19.030;2023-04-03T00:21:50;101989.91;;;3.31;95.82
33949;BME280;20229;49.856;19.030;2023-04-03T00:27:04;101995.34;;;3.25;95.60
33949;BME280;20229;49.856;19.030;2023-04-03T00:32:18;101994.46;;;3.21;95.51
33949;BME280;20229;49.856;19.030;2023-04-03T00:37:32;102000.78;;;3.22;95.71
33949;BME280;20229;49.856;19.030;2023-04-03T00:42:50;101992.66;;;3.23;95.38
33949;BME280;20229;49.856;19.030;2023-04-03T00:48:08;101993.56;;;3.21;95.05
33949;BME280;20229;49.856;19.030;2023-04-03T00:53:31;101999.85;;;3.21;95.42
33949;BME280;20229;49.856;19.030;2023-04-03T00:58:54;101996.28;;;3.19;95.40
33949;BME280;20229;49.856;19.030;2023-04-03T01:09:37;102005.31;;;3.12;95.58
33949;BME280;20229;49.856;19.030;2023-04-03T01:14:58;101999.02;;;3.10;95.42
33949;BME280;20229;49.856;19.030;2023-04-03T01:26:02;102005.37;;;3.04;95.11
33949;BME280;20229;49.856;19.030;2023-04-03T01:31:16;102025.15;;;3.02;95.11
33949;BME280;20229;49.856;19.030;2023-04-03T01:37:00;102022.48;;;2.94;95.04
33949;BME280;20229;49.856;19.030;2023-04-03T01:42:14;102034.16;;;2.98;94.80
33949;BME280;20229;49.856;19.030;2023-04-03T01:47:29;102035.06;;;2.95;95.05
33949;BME280;20229;49.856;19.030;2023-04-03T01:52:43;102029.66;;;2.95;94.57
33949;BME280;20229;49.856;19.030;2023-04-03T01:57:57;102035.97;;;2.90;94.81
33949;BME280;20229;49.856;19.030;2023-04-03T02:03:11;102035.06;;;2.92;94.63
33949;BME280;20229;49.856;19.030;2023-04-03T02:08:25;102036.89;;;2.90;95.05
33949;BME280;20229;49.856;19.030;2023-04-03T02:13:39;102040.47;;;2.92;94.68
33949;BME280;20229;49.856;19.030;2023-04-03T02:18:53;102044.96;;;2.92;94.48
33949;BME280;20229;49.856;19.030;2023-04-03T02:24:07;102041.36;;;2.93;94.49
33949;BME280;20229;49.856;19.030;2023-04-03T02:29:21;102037.80;;;2.87;94.26
33949;BME280;20229;49.856;19.030;2023-04-03T02:34:35;102035.97;;;2.90;94.55
33949;BME280;20229;49.856;19.030;2023-04-03T02:39:48;102052.16;;;2.90;94.02
33949;BME280;20229;49.856;19.030;2023-04-03T02:45:03;102046.80;;;2.86;93.93
33949;BME280;20229;49.856;19.030;2023-04-03T02:50:17;102042.30;;;2.84;94.05
33949;BME280;20229;49.856;19.030;2023-04-03T02:55:31;102052.16;;;2.90;94.89
33949;BME280;20229;49.856;19.030;2023-04-03T03:00:46;102055.76;;;2.88;94.09
33949;BME280;20229;49.856;19.030;2023-04-03T03:06:08;102056.67;;;2.87;94.24
33949;BME280;20229;49.856;19.030;2023-04-03T03:11:22;102054.90;;;2.83;93.52
33949;BME280;20229;49.856;19.030;2023-04-03T03:16:36;102060.29;;;2.80;94.46
33949;BME280;20229;49.856;19.030;2023-04-03T03:21:50;102058.51;;;2.79;93.99
33949;BME280;20229;49.856;19.030;2023-04-03T03:27:05;102063.88;;;2.84;94.10
33949;BME280;20229;49.856;19.030;2023-04-03T03:32:19;102057.59;;;2.83;94.02
33949;BME280;20229;49.856;19.030;2023-04-03T03:37:37;102057.59;;;2.83;93.76
33949;BME280;20229;49.856;19.030;2023-04-03T03:42:51;102066.59;;;2.79;93.55
33949;BME280;20229;49.856;19.030;2023-04-03T03:48:05;102074.68;;;2.78;93.50
33949;BME280;20229;49.856;19.030;2023-04-03T03:53:19;102072.00;;;2.76;93.15
33949;BME280;20229;49.856;19.030;2023-04-03T03:58:33;102078.26;;;2.75;92.77
33949;BME280;20229;49.856;19.030;2023-04-03T04:03:48;102088.16;;;2.72;92.69
33949;BME280;20229;49.856;19.030;2023-04-03T04:09:02;102089.97;;;2.68;92.34
33949;BME280;20229;49.856;19.030;2023-04-03T04:14:16;102089.98;;;2.63;92.16
33949;BME280;20229;49.856;19.030;2023-04-03T04:19:30;102088.20;;;2.59;91.35
33949;BME280;20229;49.856;19.030;2023-04-03T04:24:44;102099.88;;;2.54;90.89
33949;BME280;20229;49.856;19.030;2023-04-03T04:29:57;102096.30;;;2.49;90.97
33949;BME280;20229;49.856;19.030;2023-04-03T04:35:11;102098.10;;;2.45;90.73
33949;BME280;20229;49.856;19.030;2023-04-03T04:40:26;102109.77;;;2.46;90.48
33949;BME280;20229;49.856;19.030;2023-04-03T04:45:41;102118.77;;;2.42;90.95
33949;BME280;20229;49.856;19.030;2023-04-03T04:50:54;102110.67;;;2.38;90.58
33949;BME280;20229;49.856;19.030;2023-04-03T04:56:09;102123.23;;;2.39;90.67
33949;BME280;20229;49.856;19.030;2023-04-03T05:01:23;102124.15;;;2.38;91.55
33949;BME280;20229;49.856;19.030;2023-04-03T05:06:38;102121.45;;;2.35;92.01
33949;BME280;20229;49.856;19.030;2023-04-03T05:11:53;102132.24;;;2.34;92.26
33949;BME280;20229;49.856;19.030;2023-04-03T05:17:07;102143.00;;;2.29;92.72
33949;BME280;20229;49.856;19.030;2023-04-03T05:22:21;102139.41;;;2.26;93.00
33949;BME280;20229;49.856;19.030;2023-04-03T05:27:35;102147.52;;;2.23;92.65
33949;BME280;20229;49.856;19.030;2023-04-03T05:32:48;102160.95;;;2.18;92.28
33949;BME280;20229;49.856;19.030;2023-04-03T05:38:03;102167.25;;;2.09;92.91
33949;BME280;20229;49.856;19.030;2023-04-03T05:43:17;102161.83;;;2.08;93.08
33949;BME280;20229;49.856;19.030;2023-04-03T05:48:31;102171.72;;;2.07;92.53
33949;BME280;20229;49.856;19.030;2023-04-03T05:53:46;102170.81;;;2.04;91.79
33949;BME280;20229;49.856;19.030;2023-04-03T05:59:00;102169.02;;;2.03;92.12
33949;BME280;20229;49.856;19.030;2023-04-03T06:04:14;102177.12;;;2.10;92.12
33949;BME280;20229;49.856;19.030;2023-04-03T06:09:30;102185.20;;;2.18;91.71
33949;BME280;20229;49.856;19.030;2023-04-03T06:14:43;102187.00;;;2.22;91.66
33949;BME280;20229;49.856;19.030;2023-04-03T06:19:58;102196.91;;;2.26;91.17
33949;BME280;20229;49.856;19.030;2023-04-03T06:25:12;102197.81;;;2.19;90.80
33949;BME280;20229;49.856;19.030;2023-04-03T06:30:25;102207.62;;;2.05;90.53
33949;BME280;20229;49.856;19.030;2023-04-03T06:35:40;102222.87;;;1.97;90.81
33949;BME280;20229;49.856;19.030;2023-04-03T06:40:54;102218.38;;;1.93;91.06
33949;BME280;20229;49.856;19.030;2023-04-03T06:46:16;102229.17;;;2.03;90.88
33949;BME280;20229;49.856;19.030;2023-04-03T06:51:31;102238.18;;;2.10;91.24
33949;BME280;20229;49.856;19.030;2023-04-03T06:56:44;102246.27;;;2.13;91.71
33949;BME280;20229;49.856;19.030;2023-04-03T07:01:59;102248.98;;;2.21;92.13
33949;BME280;20229;49.856;19.030;2023-04-03T07:07:13;102260.71;;;2.47;91.46
33949;BME280;20229;49.856;19.030;2023-04-03T07:12:30;102257.15;;;2.90;91.06
33949;BME280;20229;49.856;19.030;2023-04-03T07:17:44;102268.81;;;3.41;89.12
33949;BME280;20229;49.856;19.030;2023-04-03T07:22:57;102265.98;;;3.80;87.58
33949;BME280;20229;49.856;19.030;2023-04-03T07:28:12;102264.97;;;4.14;84.87
33949;BME280;20229;49.856;19.030;2023-04-03T07:33:26;102279.51;;;3.77;81.33
33949;BME280;20229;49.856;19.030;2023-04-03T07:38:40;102284.09;;;3.45;83.61
33949;BME280;20229;49.856;19.030;2023-04-03T07:43:54;102274.20;;;3.47;85.54
33949;BME280;20229;49.856;19.030;2023-04-03T07:49:09;102282.19;;;3.87;84.70
33949;BME280;20229;49.856;19.030;2023-04-03T07:54:23;102289.43;;;3.75;84.32
33949;BME280;20229;49.856;19.030;2023-04-03T07:59:37;102290.35;;;3.64;84.15
33949;BME280;20229;49.856;19.030;2023-04-03T08:04:50;102296.72;;;3.37;83.93
33949;BME280;20229;49.856;19.030;2023-04-03T08:10:06;102292.22;;;3.26;84.90
33949;BME280;20229;49.856;19.030;2023-04-03T08:15:22;102302.08;;;3.43;81.78
33949;BME280;20229;49.856;19.030;2023-04-03T08:20:38;102310.08;;;3.89;79.16
33949;BME280;20229;49.856;19.030;2023-04-03T08:25:53;102302.58;;;4.52;78.63
33949;BME280;20229;49.856;19.030;2023-04-03T08:31:12;102302.07;;;5.24;71.71
33949;BME280;20229;49.856;19.030;2023-04-03T08:36:29;102295.80;;;5.17;72.81
33949;BME280;20229;49.856;19.030;2023-04-03T08:41:44;102311.23;;;5.08;72.72
33949;BME280;20229;49.856;19.030;2023-04-03T08:52:52;102308.82;;;5.71;72.40
33949;BME280;20229;49.856;19.030;2023-04-03T08:58:06;102295.75;;;6.10;66.70
33949;BME280;20229;49.856;19.030;2023-04-03T09:03:22;102297.96;;;6.48;68.33
33949;BME280;20229;49.856;19.030;2023-04-03T09:08:47;102304.35;;;6.44;66.71
33949;BME280;20229;49.856;19.030;2023-04-03T09:37:39;102335.68;;;6.66;60.11
33949;BME280;20229;49.856;19.030;2023-04-03T09:42:56;102330.06;;;6.80;57.36
33949;BME280;20229;49.856;19.030;2023-04-03T09:48:18;102331.63;;;6.97;57.34
33949;BME280;20229;49.856;19.030;2023-04-03T09:53:37;102343.59;;;6.82;58.02
33949;BME280;20229;49.856;19.030;2023-04-03T10:04:19;102344.07;;;7.11;53.40
33949;BME280;20229;49.856;19.030;2023-04-03T10:09:35;102340.95;;;7.36;56.88
33949;BME280;20229;49.856;19.030;2023-04-03T10:14:56;102354.20;;;7.54;54.65
33949;BME280;20229;49.856;19.030;2023-04-03T10:31:43;102361.17;;;7.16;53.15
33949;BME280;20229;49.856;19.030;2023-04-03T10:58:53;102330.93;;;7.39;53.18
33949;BME280;20229;49.856;19.030;2023-04-03T11:04:10;102330.88;;;7.41;53.33
33949;BME280;20229;49.856;19.030;2023-04-03T11:09:34;102329.00;;;7.46;51.87
33949;BME280;20229;49.856;19.030;2023-04-03T11:15:20;102328.26;;;7.35;54.19
33949;BME280;20229;49.856;19.030;2023-04-03T11:20:42;102325.72;;;7.26;52.03
33949;BME280;20229;49.856;19.030;2023-04-03T11:31:39;102320.24;;;7.29;52.28
33949;BME280;20229;49.856;19.030;2023-04-03T11:36:55;102320.47;;;7.13;52.39
33949;BME280;20229;49.856;19.030;2023-04-03T11:42:15;102317.80;;;7.12;54.15
33949;BME280;20229;49.856;19.030;2023-04-03T11:52:59;102316.56;;;6.76;52.55
33949;BME280;20229;49.856;19.030;2023-04-03T12:08:59;102299.27;;;6.81;52.38
33949;BME280;20229;49.856;19.030;2023-04-03T12:14:16;102305.06;;;7.15;53.63
33949;BME280;20229;49.856;19.030;2023-04-03T12:19:37;102297.34;;;7.92;54.23
33949;BME280;20229;49.856;19.030;2023-04-03T12:25:46;102300.69;;;7.58;50.15
33949;BME280;20229;49.856;19.030;2023-04-03T12:30:51;102297.14;;;7.54;50.33
33949;BME280;20229;49.856;19.030;2023-04-03T12:36:11;102295.85;;;7.74;50.71
33949;BME280;20229;49.856;19.030;2023-04-03T12:41:36;102281.35;;;7.75;51.74
33949;BME280;20229;49.856;19.030;2023-04-03T12:46:53;102295.98;;;7.68;46.75
33949;BME280;20229;49.856;19.030;2023-04-03T12:52:22;102304.66;;;7.88;49.30
33949;BME280;20229;49.856;19.030;2023-04-03T12:57:32;102291.35;;;8.18;49.65
33949;BME280;20229;49.856;19.030;2023-04-03T13:02:46;102296.23;;;8.45;46.70
33949;BME280;20229;49.856;19.030;2023-04-03T13:08:04;102283.47;;;8.47;49.15
33949;BME280;20229;49.856;19.030;2023-04-03T13:13:18;102276.77;;;8.62;49.09
33949;BME280;20229;49.856;19.030;2023-04-03T13:18:34;102291.44;;;8.56;47.85
33949;BME280;20229;49.856;19.030;2023-04-03T13:23:51;102285.57;;;8.33;45.44
33949;BME280;20229;49.856;19.030;2023-04-03T13:34:38;102271.31;;;8.64;47.03
33949;BME280;20229;49.856;19.030;2023-04-03T13:40:04;102276.74;;;8.64;45.58
33949;BME280;20229;49.856;19.030;2023-04-03T13:45:54;102278.34;;;8.32;42.80
33949;BME280;20229;49.856;19.030;2023-04-03T13:51:18;102276.47;;;7.92;41.84
33949;BME280;20229;49.856;19.030;2023-04-03T13:56:38;102281.77;;;7.53;43.34
33949;BME280;20229;49.856;19.030;2023-04-03T14:07:22;102283.20;;;7.23;44.28
33949;BME280;20229;49.856;19.030;2023-04-03T14:12:37;102274.91;;;7.31;46.59
33949;BME280;20229;49.856;19.030;2023-04-03T14:17:54;102279.40;;;7.33;45.70
33949;BME280;20229;49.856;19.030;2023-04-03T14:23:09;102287.41;;;7.41;45.49
33949;BME280;20229;49.856;19.030;2023-04-03T14:28:23;102278.36;;;7.42;44.59
33949;BME280;20229;49.856;19.030;2023-04-03T14:33:40;102274.96;;;7.28;45.20
33949;BME280;20229;49.856;19.030;2023-04-03T14:38:55;102275.80;;;7.31;45.79
33949;BME280;20229;49.856;19.030;2023-04-03T14:44:09;102269.27;;;7.43;45.41
33949;BME280;20229;49.856;19.030;2023-04-03T14:49:28;102271.10;;;7.41;45.81
33949;BME280;20229;49.856;19.030;2023-04-03T14:54:42;102269.52;;;7.28;46.54
33949;BME280;20229;49.856;19.030;2023-04-03T14:59:56;102271.49;;;7.19;46.37
33949;BME280;20229;49.856;19.030;2023-04-03T15:05:11;102269.10;;;7.01;46.11
33949;BME280;20229;49.856;19.030;2023-04-03T15:10:28;102265.84;;;6.79;45.95
33949;BME280;20229;49.856;19.030;2023-04-03T15:15:42;102273.91;;;6.84;46.79
33949;BME280;20229;49.856;19.030;2023-04-03T15:20:56;102276.49;;;6.93;46.61
33949;BME280;20229;49.856;19.030;2023-04-03T15:26:10;102274.04;;;6.75;47.40
33949;BME280;20229;49.856;19.030;2023-04-03T15:31:23;102271.06;;;6.33;46.38
33949;BME280;20229;49.856;19.030;2023-04-03T15:36:38;102282.39;;;5.90;47.12
33949;BME280;20229;49.856;19.030;2023-04-03T15:41:52;102276.09;;;5.91;47.08
33949;BME280;20229;49.856;19.030;2023-04-03T15:47:07;102277.84;;;5.96;47.37
33949;BME280;20229;49.856;19.030;2023-04-03T15:52:21;102287.91;;;5.84;47.10
33949;BME280;20229;49.856;19.030;2023-04-03T15:57:35;102295.18;;;5.79;48.58
33949;BME280;20229;49.856;19.030;2023-04-03T16:02:54;102288.10;;;5.65;48.90
33949;BME280;20229;49.856;19.030;2023-04-03T16:08:08;102284.77;;;5.39;47.47
33949;BME280;20229;49.856;19.030;2023-04-03T16:13:23;102283.98;;;5.26;47.52
33949;BME280;20229;49.856;19.030;2023-04-03T16:18:37;102288.63;;;5.13;48.35
33949;BME280;20229;49.856;19.030;2023-04-03T16:23:51;102285.20;;;4.90;48.83
33949;BME280;20229;49.856;19.030;2023-04-03T16:29:05;102286.30;;;4.64;48.20
33949;BME280;20229;49.856;19.030;2023-04-03T16:34:19;102302.66;;;4.43;49.68
33949;BME280;20229;49.856;19.030;2023-04-03T16:39:35;102303.62;;;4.29;50.26
33949;BME280;20229;49.856;19.030;2023-04-03T16:44:49;102307.24;;;4.28;51.50
33949;BME280;20229;49.856;19.030;2023-04-03T16:50:03;102302.74;;;4.26;51.64
33949;BME280;20229;49.856;19.030;2023-04-03T16:55:18;102311.80;;;4.17;52.18
33949;BME280;20229;49.856;19.030;2023-04-03T17:00:32;102312.75;;;4.04;52.09
33949;BME280;20229;49.856;19.030;2023-04-03T17:05:47;102306.48;;;3.91;51.39
33949;BME280;20229;49.856;19.030;2023-04-03T17:11:02;102314.62;;;3.77;51.72
33949;BME280;20229;49.856;19.030;2023-04-03T17:16:16;102318.27;;;3.61;52.09
33949;BME280;20229;49.856;19.030;2023-04-03T17:21:32;102330.91;;;3.44;53.29
33949;BME280;20229;49.856;19.030;2023-04-03T17:26:46;102334.50;;;3.24;54.98
33949;BME280;20229;49.856;19.030;2023-04-03T17:32:00;102340.81;;;3.08;55.94
33949;BME280;20229;49.856;19.030;2023-04-03T17:37:13;102347.09;;;2.95;55.47
33949;BME280;20229;49.856;19.030;2023-04-03T17:42:28;102350.66;;;2.86;55.87
33949;BME280;20229;49.856;19.030;2023-04-03T17:47:45;102361.41;;;2.75;57.34
33949;BME280;20229;49.856;19.030;2023-04-03T17:52:59;102354.23;;;2.71;57.64
33949;BME280;20229;49.856;19.030;2023-04-03T17:58:13;102363.21;;;2.67;58.63
33949;BME280;20229;49.856;19.030;2023-04-03T18:03:26;102368.59;;;2.64;59.32
33949;BME280;20229;49.856;19.030;2023-04-03T18:08:44;102370.37;;;2.56;59.58
33949;BME280;20229;49.856;19.030;2023-04-03T18:14:01;102373.97;;;2.55;60.22
33949;BME280;20229;49.856;19.030;2023-04-03T18:19:15;102375.75;;;2.53;60.78
33949;BME280;20229;49.856;19.030;2023-04-03T18:24:32;102377.52;;;2.51;61.19
33949;BME280;20229;49.856;19.030;2023-04-03T18:29:49;102385.63;;;2.49;61.22
33949;BME280;20229;49.856;19.030;2023-04-03T18:35:07;102391.91;;;2.50;61.89
33949;BME280;20229;49.856;19.030;2023-04-03T18:40:21;102393.71;;;2.49;61.16
33949;BME280;20229;49.856;19.030;2023-04-03T18:45:36;102402.69;;;2.50;61.57
33949;BME280;20229;49.856;19.030;2023-04-03T18:50:53;102397.28;;;2.47;58.78
33949;BME280;20229;49.856;19.030;2023-04-03T18:56:08;102395.52;;;2.52;59.57
33949;BME280;20229;49.856;19.030;2023-04-03T19:01:22;102387.44;;;2.52;59.19
33949;BME280;20229;49.856;19.030;2023-04-03T19:06:37;102384.75;;;2.52;59.95
33949;BME280;20229;49.856;19.030;2023-04-03T19:11:51;102384.73;;;2.49;60.42
33949;BME280;20229;49.856;19.030;2023-04-03T19:17:05;102374.82;;;2.46;60.13
33949;BME280;20229;49.856;19.030;2023-04-03T19:22:21;102388.31;;;2.45;61.29
33949;BME280;20229;49.856;19.030;2023-04-03T19:27:36;102392.78;;;2.43;61.98
33949;BME280;20229;49.856;19.030;2023-04-03T19:32:51;102387.38;;;2.39;62.23
33949;BME280;20229;49.856;19.030;2023-04-03T19:38:05;102394.56;;;2.39;61.66
33949;BME280;20229;49.856;19.030;2023-04-03T19:43:18;102398.16;;;2.38;62.01
33949;BME280;20229;49.856;19.030;2023-04-03T19:48:34;102389.20;;;2.41;62.59
33949;BME280;20229;49.856;19.030;2023-04-03T19:53:48;102390.05;;;2.36;62.49
33949;BME280;20229;49.856;19.030;2023-04-03T19:59:03;102391.87;;;2.39;62.89
33949;BME280;20229;49.856;19.030;2023-04-03T20:04:17;102387.36;;;2.35;61.67
33949;BME280;20229;49.856;19.030;2023-04-03T20:09:31;102376.58;;;2.35;62.64
33949;BME280;20229;49.856;19.030;2023-04-03T20:14:46;102382.85;;;2.32;62.83
33949;BME280;20229;49.856;19.030;2023-04-03T20:20:01;102389.13;;;2.28;62.76
33949;BME280;20229;49.856;19.030;2023-04-03T20:25:17;102389.13;;;2.27;62.29
33949;BME280;20229;49.856;19.030;2023-04-03T20:30:31;102398.12;;;2.27;62.23
33949;BME280;20229;49.856;19.030;2023-04-03T20:35:47;102398.99;;;2.25;62.44
33949;BME280;20229;49.856;19.030;2023-04-03T20:41:01;102397.20;;;2.25;62.86
33949;BME280;20229;49.856;19.030;2023-04-03T20:46:15;102403.48;;;2.26;62.80
33949;BME280;20229;49.856;19.030;2023-04-03T20:51:33;102397.20;;;2.24;64.14
33949;BME280;20229;49.856;19.030;2023-04-03T20:56:47;102398.10;;;2.23;63.29
33949;BME280;20229;49.856;19.030;2023-04-03T21:02:02;102406.18;;;2.24;64.05
33949;BME280;20229;49.856;19.030;2023-04-03T21:24:05;102399.86;;;2.16;64.90
33949;BME280;20229;49.856;19.030;2023-04-03T21:29:23;102404.34;;;2.17;64.35
33949;BME280;20229;49.856;19.030;2023-04-03T21:34:36;102397.17;;;2.16;64.41
33949;BME280;20229;49.856;19.030;2023-04-03T21:39:52;102400.74;;;2.18;64.30
33949;BME280;20229;49.856;19.030;2023-04-03T21:45:07;102398.06;;;2.17;64.68
33949;BME280;20229;49.856;19.030;2023-04-03T21:50:22;102398.95;;;2.17;64.90
33949;BME280;20229;49.856;19.030;2023-04-03T21:55:37;102387.26;;;2.15;65.80
33949;BME280;20229;49.856;19.030;2023-04-03T22:00:50;102383.68;;;2.13;65.71
33949;BME280;20229;49.856;19.030;2023-04-03T22:06:04;102364.79;;;2.10;66.32
33949;BME280;20229;49.856;19.030;2023-04-03T22:11:19;102363.01;;;2.09;66.42
33949;BME280;20229;49.856;19.030;2023-04-03T22:16:39;102357.58;;;2.03;66.11
33949;BME280;20229;49.856;19.030;2023-04-03T22:21:53;102338.69;;;1.95;66.18
33949;BME280;20229;49.856;19.030;2023-04-03T22:27:07;102343.16;;;1.91;66.27
33949;BME280;20229;49.856;19.030;2023-04-03T22:32:21;102327.87;;;1.90;66.65
33949;BME280;20229;49.856;19.030;2023-04-03T22:37:35;102329.67;;;1.88;66.99
33949;BME280;20229;49.856;19.030;2023-04-03T22:42:49;102326.09;;;1.88;67.05
33949;BME280;20229;49.856;19.030;2023-04-03T22:48:03;102317.97;;;1.80;66.87
33949;BME280;20229;49.856;19.030;2023-04-03T22:53:18;102312.50;;;1.68;67.04
33949;BME280;20229;49.856;19.030;2023-04-03T22:58:33;102305.23;;;1.55;66.89
33949;BME280;20229;49.856;19.030;2023-04-03T23:03:47;102294.40;;;1.42;67.75
33949;BME280;20229;49.856;19.030;2023-04-03T23:09:02;102292.48;;;1.26;68.04
33949;BME280;20229;49.856;19.030;2023-04-03T23:14:16;102290.59;;;1.13;68.87
33949;BME280;20229;49.856;19.030;2023-04-03T23:19:31;102291.43;;;1.03;68.57
33949;BME280;20229;49.856;19.030;2023-04-03T23:24:47;102286.89;;;0.95;69.17
33949;BME280;20229;49.856;19.030;2023-04-03T23:30:01;102288.55;;;0.84;69.30
33949;BME280;20229;49.856;19.030;2023-04-03T23:35:14;102267.88;;;0.77;69.75
33949;BME280;20229;49.856;19.030;2023-04-03T23:40:29;102272.30;;;0.69;69.79
33949;BME280;20229;49.856;19.030;2023-04-03T23:45:45;102268.68;;;0.65;70.42
33949;BME280;20229;49.856;19.030;2023-04-03T23:51:00;102279.40;;;0.61;70.18
33949;BME280;20229;49.856;19.030;2023-04-03T23:56:14;102277.54;;;0.54;70.97
